createdAt,value
2022-10-25T00:00:57.325Z,14.30
2022-10-25T00:03:23.970Z,14.40
2022-10-25T00:05:50.498Z,14.40
2022-10-25T00:08:17.052Z,14.40
2022-10-25T00:10:43.601Z,14.50
2022-10-25T00:13:10.132Z,14.50
2022-10-25T00:15:36.995Z,14.40
2022-10-25T00:18:03.752Z,14.40
2022-10-25T00:20:30.366Z,14.30
2022-10-25T00:22:57.394Z,14.30
2022-10-25T00:25:24.205Z,14.20
2022-10-25T00:27:50.743Z,14.40
2022-10-25T00:30:17.423Z,14.40
2022-10-25T00:32:44.235Z,14.40
2022-10-25T00:35:10.881Z,14.50
2022-10-25T00:37:37.496Z,14.50
2022-10-25T00:40:05.220Z,14.50
2022-10-25T00:42:31.911Z,14.40
2022-10-25T00:45:02.317Z,14.50
2022-10-25T00:47:41.830Z,14.50
2022-10-25T00:50:11.481Z,14.50
2022-10-25T00:52:41.986Z,14.60
2022-10-25T00:55:10.781Z,14.60
2022-10-25T00:57:40.640Z,14.60
2022-10-25T01:00:07.941Z,14.70
2022-10-25T01:02:35.339Z,14.70
2022-10-25T01:05:02.554Z,14.70
2022-10-25T01:07:29.166Z,14.60
2022-10-25T01:09:56.971Z,14.60
2022-10-25T01:12:23.514Z,14.60
2022-10-25T01:14:51.634Z,14.50
2022-10-25T01:17:56.134Z,14.50
2022-10-25T01:20:57.953Z,14.40
2022-10-25T01:23:49.113Z,14.40
2022-10-25T01:27:01.096Z,14.30
2022-10-25T01:29:50.121Z,14.30
2022-10-25T01:32:33.659Z,14.30
2022-10-25T01:35:26.190Z,14.30
2022-10-25T01:38:13.997Z,14.20
2022-10-25T01:41:29.670Z,14.20
2022-10-25T01:44:08.293Z,14.30
2022-10-25T01:47:01.183Z,14.20
2022-10-25T01:49:50.423Z,14.20
2022-10-25T01:52:22.514Z,14.20
2022-10-25T01:54:49.809Z,14.30
2022-10-25T01:57:24.046Z,14.20
2022-10-25T02:00:08.797Z,14.20
2022-10-25T02:03:18.092Z,14.30
2022-10-25T02:06:02.878Z,14.20
2022-10-25T02:08:48.329Z,14.20
2022-10-25T02:11:31.763Z,14.20
2022-10-25T02:14:07.586Z,14.20
2022-10-25T02:17:00.802Z,14.20
2022-10-25T02:19:35.307Z,14.10
2022-10-25T02:22:03.490Z,14.10
2022-10-25T02:24:32.028Z,14.20
2022-10-25T02:26:59.659Z,14.20
2022-10-25T02:29:28.792Z,14.20
2022-10-25T02:31:55.342Z,14.20
2022-10-25T02:34:21.990Z,14.20
2022-10-25T02:36:53.259Z,14.30
2022-10-25T02:39:27.750Z,14.30
2022-10-25T02:41:57.090Z,14.50
2022-10-25T02:44:23.633Z,14.50
2022-10-25T02:46:50.181Z,14.60
2022-10-25T02:49:16.711Z,14.60
2022-10-25T02:51:43.726Z,14.60
2022-10-25T02:54:10.372Z,14.70
2022-10-25T02:56:37.972Z,14.60
2022-10-25T02:59:04.879Z,14.70
2022-10-25T03:01:31.517Z,14.70
2022-10-25T03:03:58.226Z,14.70
2022-10-25T03:06:24.813Z,14.70
2022-10-25T03:08:51.440Z,14.60
2022-10-25T03:11:18.065Z,14.60
2022-10-25T03:13:44.668Z,14.60
2022-10-25T03:16:11.638Z,14.60
2022-10-25T03:18:38.446Z,14.60
2022-10-25T03:21:05.901Z,14.60
2022-10-25T03:23:32.873Z,14.60
2022-10-25T03:26:00.448Z,14.60
2022-10-25T03:28:28.585Z,14.70
2022-10-25T03:30:56.859Z,14.60
2022-10-25T03:33:24.373Z,14.60
2022-10-25T03:35:52.387Z,14.50
2022-10-25T03:38:19.018Z,14.50
2022-10-25T03:40:45.754Z,14.60
2022-10-25T03:43:13.798Z,14.60
2022-10-25T03:45:40.398Z,14.60
2022-10-25T03:48:07.073Z,14.60
2022-10-25T03:50:33.767Z,14.60
2022-10-25T03:53:00.417Z,14.70
2022-10-25T03:55:27.098Z,14.70
2022-10-25T03:57:53.623Z,14.60
2022-10-25T04:00:20.236Z,14.60
2022-10-25T04:02:46.914Z,14.50
2022-10-25T04:05:13.582Z,14.50
2022-10-25T04:07:40.157Z,14.70
2022-10-25T04:10:07.049Z,14.70
2022-10-25T04:12:33.614Z,14.60
2022-10-25T04:15:00.431Z,14.60
2022-10-25T04:17:27.029Z,14.60
2022-10-25T04:19:53.813Z,14.60
2022-10-25T04:22:20.359Z,14.50
2022-10-25T04:24:47.036Z,14.60
2022-10-25T04:27:13.590Z,14.70
2022-10-25T04:29:40.557Z,14.60
2022-10-25T04:32:07.162Z,14.60
2022-10-25T04:34:33.751Z,14.70
2022-10-25T04:37:00.286Z,14.80
2022-10-25T04:39:26.935Z,14.70
2022-10-25T04:41:53.483Z,14.70
2022-10-25T04:44:20.021Z,14.60
2022-10-25T04:46:48.755Z,14.60
2022-10-25T04:49:16.063Z,14.60
2022-10-25T04:51:42.742Z,14.40
2022-10-25T04:54:11.326Z,14.30
2022-10-25T04:56:37.955Z,14.20
2022-10-25T04:59:04.721Z,14.30
2022-10-25T05:01:31.393Z,14.30
2022-10-25T05:03:58.049Z,14.30
2022-10-25T05:06:26.689Z,14.20
2022-10-25T05:08:54.341Z,14.20
2022-10-25T05:11:23.300Z,14.20
2022-10-25T05:13:49.922Z,14.30
2022-10-25T05:16:23.790Z,14.20
2022-10-25T05:18:51.797Z,14.20
2022-10-25T05:21:18.825Z,14.10
2022-10-25T05:23:46.474Z,14.10
2022-10-25T05:26:18.633Z,14.10
2022-10-25T05:28:47.315Z,14.00
2022-10-25T05:31:20.082Z,14.00
2022-10-25T05:33:50.134Z,14.00
2022-10-25T05:36:17.470Z,14.00
2022-10-25T05:38:43.989Z,14.00
2022-10-25T05:41:12.731Z,14.00
2022-10-25T05:43:40.055Z,14.00
2022-10-25T05:46:10.398Z,14.00
2022-10-25T05:48:37.537Z,13.90
2022-10-25T05:51:40.352Z,13.90
2022-10-25T05:54:11.717Z,13.90
2022-10-25T05:56:39.264Z,13.90
2022-10-25T05:59:13.232Z,13.90
2022-10-25T06:01:47.028Z,13.90
2022-10-25T06:04:14.388Z,13.80
2022-10-25T06:06:42.239Z,13.80
2022-10-25T06:09:09.484Z,13.80
2022-10-25T06:11:36.736Z,13.90
2022-10-25T06:14:03.851Z,13.80
2022-10-25T06:16:30.394Z,13.80
2022-10-25T06:18:57.076Z,13.90
2022-10-25T06:21:25.607Z,14.00
2022-10-25T06:23:52.668Z,13.90
2022-10-25T06:26:25.353Z,13.80
2022-10-25T06:28:53.679Z,13.90
2022-10-25T06:31:20.610Z,13.90
2022-10-25T06:33:47.215Z,13.90
2022-10-25T06:36:19.511Z,14.00
2022-10-25T06:38:47.197Z,14.00
2022-10-25T06:41:19.574Z,14.10
2022-10-25T06:43:46.528Z,14.00
2022-10-25T06:46:24.021Z,14.00
2022-10-25T06:48:56.341Z,14.10
2022-10-25T06:51:24.411Z,14.10
2022-10-25T06:53:58.769Z,14.20
2022-10-25T06:56:26.677Z,14.20
2022-10-25T06:58:54.096Z,14.30
2022-10-25T07:01:22.698Z,14.30
2022-10-25T07:03:56.590Z,14.30
2022-10-25T07:06:29.283Z,14.30
2022-10-25T07:08:58.941Z,14.40
2022-10-25T07:11:26.984Z,14.40
2022-10-25T07:13:53.625Z,14.40
2022-10-25T07:16:21.276Z,14.50
2022-10-25T07:18:48.601Z,14.50
2022-10-25T07:21:16.396Z,14.50
2022-10-25T07:23:43.754Z,14.40
2022-10-25T07:26:17.440Z,14.50
2022-10-25T07:28:45.819Z,14.60
2022-10-25T07:31:14.388Z,14.50
2022-10-25T07:33:41.144Z,14.50
2022-10-25T07:36:11.992Z,14.60
2022-10-25T07:38:39.476Z,14.60
2022-10-25T07:41:06.399Z,14.70
2022-10-25T07:43:33.027Z,14.70
2022-10-25T07:45:59.876Z,14.80
2022-10-25T07:48:26.630Z,14.80
2022-10-25T07:50:53.184Z,14.80
2022-10-25T07:53:19.845Z,14.80
2022-10-25T07:55:54.435Z,14.80
2022-10-25T07:58:21.595Z,14.80
2022-10-25T08:00:48.177Z,14.90
2022-10-25T08:03:17.003Z,15.00
2022-10-25T08:05:45.172Z,15.10
2022-10-25T08:08:12.431Z,15.10
2022-10-25T08:10:39.310Z,15.50
2022-10-25T08:13:05.918Z,16.10
2022-10-25T08:15:32.451Z,16.60
2022-10-25T08:17:59.898Z,16.90
2022-10-25T08:20:49.135Z,16.90
2022-10-25T08:23:13.729Z,17.10
2022-10-25T08:25:40.494Z,17.00
2022-10-25T08:28:07.206Z,17.00
2022-10-25T08:30:34.074Z,16.90
2022-10-25T08:33:00.709Z,16.90
2022-10-25T08:35:27.263Z,17.10
2022-10-25T08:37:53.803Z,17.10
2022-10-25T08:40:24.629Z,17.40
2022-10-25T08:43:07.007Z,17.30
2022-10-25T08:45:37.055Z,17.30
2022-10-25T08:48:09.877Z,17.30
2022-10-25T08:50:48.810Z,17.40
2022-10-25T08:53:25.058Z,17.40
2022-10-25T08:56:15.595Z,16.90
2022-10-25T08:58:57.101Z,16.50
2022-10-25T09:01:53.205Z,16.90
2022-10-25T09:04:22.146Z,16.60
2022-10-25T09:07:00.194Z,16.90
2022-10-25T09:09:49.914Z,16.80
2022-10-25T09:12:19.311Z,16.40
2022-10-25T09:14:51.240Z,16.20
2022-10-25T09:17:20.758Z,16.70
2022-10-25T09:20:06.990Z,16.70
2022-10-25T09:22:48.768Z,16.90
2022-10-25T09:25:26.471Z,17.10
2022-10-25T09:28:03.541Z,17.30
2022-10-25T09:30:35.369Z,17.90
2022-10-25T09:33:09.149Z,18.00
2022-10-25T09:35:46.075Z,18.00
2022-10-25T09:38:23.435Z,18.10
2022-10-25T09:41:13.146Z,18.30
2022-10-25T09:43:48.639Z,18.00
2022-10-25T09:46:21.875Z,18.00
2022-10-25T09:48:56.543Z,17.70
2022-10-25T09:51:35.225Z,17.90
2022-10-25T09:54:15.205Z,18.20
2022-10-25T09:56:41.870Z,17.80
2022-10-25T09:59:13.590Z,17.50
2022-10-25T10:01:41.405Z,17.70
2022-10-25T10:04:24.529Z,17.60
2022-10-25T10:06:53.679Z,17.10
2022-10-25T10:09:20.546Z,16.80
2022-10-25T10:11:48.678Z,16.70
2022-10-25T10:14:27.485Z,16.30
2022-10-25T10:16:57.047Z,16.40
2022-10-25T10:19:25.754Z,16.60
2022-10-25T10:21:56.046Z,16.70
2022-10-25T10:24:27.501Z,16.60
2022-10-25T10:27:00.133Z,16.50
2022-10-25T10:29:33.013Z,16.50
2022-10-25T10:32:01.639Z,16.50
2022-10-25T10:34:44.034Z,16.60
2022-10-25T10:37:14.344Z,16.60
2022-10-25T10:39:51.093Z,16.60
2022-10-25T10:42:20.296Z,17.00
2022-10-25T10:45:07.718Z,17.40
2022-10-25T10:47:42.843Z,17.40
2022-10-25T10:50:20.964Z,17.80
2022-10-25T10:52:56.604Z,17.90
2022-10-25T10:55:30.192Z,17.90
2022-10-25T10:58:02.280Z,18.70
2022-10-25T11:00:30.647Z,19.30
2022-10-25T11:02:57.331Z,20.10
2022-10-25T11:05:37.533Z,20.30
2022-10-25T11:08:19.265Z,20.10
2022-10-25T11:10:46.204Z,19.30
2022-10-25T11:13:15.757Z,18.50
2022-10-25T11:16:01.558Z,18.30
2022-10-25T11:18:47.958Z,18.40
2022-10-25T11:21:49.949Z,18.90
2022-10-25T11:24:35.076Z,19.50
2022-10-25T11:27:17.566Z,20.60
2022-10-25T11:30:15.867Z,21.30
2022-10-25T11:33:08.300Z,21.20
2022-10-25T11:35:34.799Z,21.60
2022-10-25T11:38:31.667Z,21.60
2022-10-25T11:41:29.113Z,21.00
2022-10-25T11:44:27.113Z,20.30
2022-10-25T11:47:09.621Z,20.80
2022-10-25T11:50:01.453Z,19.70
2022-10-25T11:52:36.767Z,19.60
2022-10-25T11:55:22.011Z,19.30
2022-10-25T11:58:08.035Z,18.60
2022-10-25T12:00:54.980Z,18.40
2022-10-25T12:03:49.713Z,18.10
2022-10-25T12:06:31.664Z,18.30
2022-10-25T12:09:23.175Z,17.90
2022-10-25T12:12:00.198Z,17.80
2022-10-25T12:14:36.155Z,18.00
2022-10-25T12:17:05.446Z,18.30
2022-10-25T12:19:44.419Z,18.30
2022-10-25T12:22:27.507Z,18.40
2022-10-25T12:25:24.155Z,18.30
2022-10-25T12:28:04.702Z,18.00
2022-10-25T12:30:34.170Z,18.10
2022-10-25T12:33:12.985Z,18.30
2022-10-25T12:35:49.329Z,18.20
2022-10-25T12:38:25.804Z,18.60
2022-10-25T12:40:57.934Z,18.60
2022-10-25T12:43:32.520Z,18.80
2022-10-25T12:46:37.650Z,18.90
2022-10-25T12:49:15.269Z,19.50
2022-10-25T12:51:58.114Z,19.40
2022-10-25T12:54:39.089Z,19.10
2022-10-25T12:57:24.211Z,19.00
2022-10-25T13:00:12.540Z,19.40
2022-10-25T13:02:47.203Z,20.10
2022-10-25T13:05:32.180Z,20.80
2022-10-25T13:08:02.860Z,20.80
2022-10-25T13:10:33.639Z,21.10
2022-10-25T13:13:06.109Z,20.80
2022-10-25T13:15:52.762Z,20.50
2022-10-25T13:18:28.485Z,19.60
2022-10-25T13:20:55.714Z,18.90
2022-10-25T13:23:45.622Z,18.70
2022-10-25T13:26:20.317Z,18.30
2022-10-25T13:28:55.181Z,18.40
2022-10-25T13:31:33.701Z,18.60
2022-10-25T13:34:12.171Z,19.20
2022-10-25T13:36:55.244Z,20.10
2022-10-25T13:39:35.985Z,20.60
2022-10-25T13:42:14.910Z,20.90
2022-10-25T13:44:56.513Z,21.50
2022-10-25T13:47:52.169Z,21.30
2022-10-25T13:50:33.219Z,20.20
2022-10-25T13:53:05.773Z,20.60
2022-10-25T13:55:45.628Z,20.20
2022-10-25T13:58:31.911Z,19.60
2022-10-25T14:01:18.939Z,19.50
2022-10-25T14:04:01.632Z,19.90
2022-10-25T14:06:33.713Z,19.70
2022-10-25T14:09:11.544Z,19.30
2022-10-25T14:11:52.507Z,19.20
2022-10-25T14:14:29.694Z,18.90
2022-10-25T14:17:16.635Z,19.40
2022-10-25T14:19:50.469Z,19.40
2022-10-25T14:22:35.647Z,19.70
2022-10-25T14:25:28.699Z,19.10
2022-10-25T14:28:06.973Z,18.90
2022-10-25T14:30:43.476Z,19.10
2022-10-25T14:33:22.876Z,19.10
2022-10-25T14:35:52.257Z,18.70
2022-10-25T14:38:22.749Z,18.20
2022-10-25T14:41:01.121Z,18.10
2022-10-25T14:43:36.815Z,18.10
2022-10-25T14:46:25.056Z,17.70
2022-10-25T14:49:03.474Z,17.60
2022-10-25T14:51:36.776Z,17.80
2022-10-25T14:54:24.018Z,17.60
2022-10-25T14:56:55.838Z,17.70
2022-10-25T14:59:28.290Z,17.50
2022-10-25T15:02:02.898Z,17.60
2022-10-25T15:04:37.765Z,17.80
2022-10-25T15:07:06.326Z,17.90
2022-10-25T15:09:49.026Z,18.40
2022-10-25T15:12:19.437Z,18.90
2022-10-25T15:14:48.088Z,19.70
2022-10-25T15:17:30.006Z,20.50
2022-10-25T15:20:19.840Z,21.20
2022-10-25T15:22:49.686Z,21.30
2022-10-25T15:25:17.608Z,21.20
2022-10-25T15:27:44.800Z,21.60
2022-10-25T15:30:48.541Z,22.00
2022-10-25T15:33:33.386Z,21.80
2022-10-25T15:36:02.891Z,22.00
2022-10-25T15:38:54.186Z,22.30
2022-10-25T15:41:18.914Z,22.40
2022-10-25T15:43:45.494Z,22.40
2022-10-25T15:46:29.872Z,22.00
2022-10-25T15:49:00.245Z,21.60
2022-10-25T15:51:30.187Z,21.00
2022-10-25T15:53:57.745Z,20.20
2022-10-25T15:56:24.315Z,19.50
2022-10-25T15:58:51.226Z,19.00
2022-10-25T16:01:18.301Z,18.70
2022-10-25T16:03:45.317Z,18.20
2022-10-25T16:06:14.288Z,17.70
2022-10-25T16:08:41.991Z,17.40
2022-10-25T16:11:14.506Z,17.20
2022-10-25T16:13:43.107Z,16.90
2022-10-25T16:16:40.366Z,16.70
2022-10-25T16:19:14.120Z,16.50
2022-10-25T16:21:41.014Z,16.20
2022-10-25T16:24:07.758Z,15.90
2022-10-25T16:26:37.538Z,15.80
2022-10-25T16:29:04.323Z,15.70
2022-10-25T16:31:30.843Z,15.40
2022-10-25T16:33:57.386Z,15.20
2022-10-25T16:36:23.955Z,15.00
2022-10-25T16:38:50.496Z,14.90
2022-10-25T16:41:38.790Z,14.60
2022-10-25T16:44:05.534Z,14.50
2022-10-25T16:46:32.110Z,14.40
2022-10-25T16:49:01.825Z,14.20
2022-10-25T16:51:28.933Z,14.10
2022-10-25T16:53:57.076Z,14.00
2022-10-25T16:56:23.622Z,13.80
2022-10-25T16:58:50.137Z,13.70
2022-10-25T17:01:19.882Z,13.50
2022-10-25T17:03:50.902Z,13.50
2022-10-25T17:06:39.790Z,13.40
2022-10-25T17:09:05.321Z,13.30
2022-10-25T17:11:31.863Z,13.20
2022-10-25T17:13:58.400Z,13.10
2022-10-25T17:16:24.939Z,13.00
2022-10-25T17:18:51.474Z,12.80
2022-10-25T17:21:18.098Z,12.60
2022-10-25T17:23:44.744Z,12.50
2022-10-25T17:26:14.493Z,12.40
2022-10-25T17:28:43.955Z,12.40
2022-10-25T17:31:14.337Z,12.40
2022-10-25T17:33:41.853Z,12.40
2022-10-25T17:36:11.346Z,12.40
2022-10-25T17:38:38.195Z,12.30
2022-10-25T17:41:05.366Z,12.20
2022-10-25T17:43:33.642Z,12.20
2022-10-25T17:46:05.937Z,12.20
2022-10-25T17:48:33.006Z,12.40
2022-10-25T17:51:04.119Z,12.40
2022-10-25T17:53:30.647Z,12.50
2022-10-25T17:55:57.243Z,12.40
2022-10-25T17:58:23.818Z,12.30
2022-10-25T18:00:50.694Z,12.30
2022-10-25T18:03:17.278Z,12.30
2022-10-25T18:05:44.038Z,12.20
2022-10-25T18:08:11.057Z,12.10
2022-10-25T18:10:37.626Z,12.10
2022-10-25T18:13:04.202Z,12.20
2022-10-25T18:15:33.229Z,12.10
2022-10-25T18:17:59.737Z,12.10
2022-10-25T18:20:26.280Z,12.10
2022-10-25T18:22:53.364Z,12.20
2022-10-25T18:25:19.960Z,12.10
2022-10-25T18:27:47.111Z,12.10
2022-10-25T18:30:14.018Z,12.00
2022-10-25T18:32:40.780Z,12.00
2022-10-25T18:35:07.703Z,12.00
2022-10-25T18:37:34.249Z,12.00
2022-10-25T18:40:00.772Z,12.00
2022-10-25T18:42:27.379Z,12.00
2022-10-25T18:44:55.396Z,11.90
2022-10-25T18:47:22.020Z,11.90
2022-10-25T18:49:48.794Z,11.90
2022-10-25T18:52:15.338Z,11.80
2022-10-25T18:54:41.887Z,11.80
2022-10-25T18:57:08.417Z,11.80
2022-10-25T18:59:34.964Z,11.80
2022-10-25T19:02:01.675Z,11.70
2022-10-25T19:04:28.478Z,11.70
2022-10-25T19:06:55.041Z,11.70
2022-10-25T19:09:21.622Z,11.70
2022-10-25T19:11:48.203Z,11.60
2022-10-25T19:14:14.758Z,11.60
2022-10-25T19:16:42.443Z,11.70
2022-10-25T19:19:09.078Z,11.70
2022-10-25T19:21:35.722Z,11.80
2022-10-25T19:24:02.290Z,11.80
2022-10-25T19:26:28.846Z,11.80
2022-10-25T19:28:59.965Z,11.70
2022-10-25T19:31:27.698Z,11.70
2022-10-25T19:33:58.250Z,11.60
2022-10-25T19:36:24.887Z,11.50
2022-10-25T19:38:51.571Z,11.40
2022-10-25T19:41:20.744Z,11.40
2022-10-25T19:43:47.318Z,11.40
2022-10-25T19:46:14.582Z,11.30
2022-10-25T19:48:41.442Z,11.30
2022-10-25T19:51:13.521Z,11.40
2022-10-25T19:53:40.327Z,11.60
2022-10-25T19:56:16.081Z,11.70
2022-10-25T19:58:43.374Z,11.70
2022-10-25T20:01:21.495Z,11.70
2022-10-25T20:03:50.826Z,11.70
2022-10-25T20:06:24.328Z,11.70
2022-10-25T20:08:52.356Z,11.70
2022-10-25T20:11:18.953Z,11.70
2022-10-25T20:13:45.893Z,11.70
2022-10-25T20:16:13.698Z,11.60
2022-10-25T20:18:41.606Z,11.50
2022-10-25T20:21:11.994Z,11.50
2022-10-25T20:23:39.906Z,11.40
2022-10-25T20:26:14.460Z,11.40
2022-10-25T20:28:41.660Z,11.40
2022-10-25T20:31:08.719Z,11.40
2022-10-25T20:33:44.514Z,11.40
2022-10-25T20:36:13.165Z,11.40
2022-10-25T20:38:40.135Z,11.30
2022-10-25T20:41:12.466Z,11.30
2022-10-25T20:43:39.516Z,11.30
2022-10-25T20:46:07.550Z,11.20
2022-10-25T20:48:34.955Z,11.20
2022-10-25T20:51:04.179Z,11.10
2022-10-25T20:53:34.291Z,11.10
2022-10-25T20:56:00.872Z,11.00
2022-10-25T20:58:27.615Z,11.00
2022-10-25T21:00:57.539Z,11.00
2022-10-25T21:03:25.609Z,11.00
2022-10-25T21:05:56.682Z,11.00
2022-10-25T21:08:23.637Z,11.00
2022-10-25T21:10:55.347Z,11.00
2022-10-25T21:13:25.625Z,11.00
2022-10-25T21:15:52.485Z,10.90
2022-10-25T21:18:19.579Z,10.90
2022-10-25T21:20:47.560Z,10.80
2022-10-25T21:23:14.850Z,10.80
2022-10-25T21:25:41.390Z,10.80
2022-10-25T21:28:07.973Z,10.80
2022-10-25T21:30:34.808Z,10.80
2022-10-25T21:33:03.118Z,10.80
2022-10-25T21:35:29.955Z,10.80
2022-10-25T21:37:57.981Z,10.90
2022-10-25T21:40:25.217Z,10.90
2022-10-25T21:42:51.800Z,10.90
2022-10-25T21:45:18.342Z,10.90
2022-10-25T21:47:44.896Z,10.90
2022-10-25T21:50:11.476Z,10.90
2022-10-25T21:52:38.031Z,11.00
2022-10-25T21:55:04.962Z,11.00
2022-10-25T21:57:31.532Z,11.00
2022-10-25T21:59:58.082Z,11.00
2022-10-25T22:02:24.760Z,11.00
2022-10-25T22:04:51.961Z,11.00
2022-10-25T22:07:18.489Z,11.10
2022-10-25T22:09:45.454Z,11.10
2022-10-25T22:12:12.006Z,11.10
2022-10-25T22:14:38.536Z,11.10
2022-10-25T22:17:05.093Z,11.30
2022-10-25T22:19:31.648Z,11.20
2022-10-25T22:21:58.260Z,11.20
2022-10-25T22:24:24.901Z,11.30
2022-10-25T22:26:51.505Z,11.20
2022-10-25T22:29:18.078Z,11.20
2022-10-25T22:31:44.713Z,11.20
2022-10-25T22:34:11.415Z,11.30
2022-10-25T22:36:40.874Z,11.20
2022-10-25T22:39:08.620Z,11.30
2022-10-25T22:41:35.544Z,11.40
2022-10-25T22:44:02.074Z,11.40
2022-10-25T22:46:36.230Z,11.40
2022-10-25T22:49:08.131Z,11.30
2022-10-25T22:51:35.423Z,11.40
2022-10-25T22:54:02.146Z,11.40
2022-10-25T22:56:30.685Z,11.50
2022-10-25T22:59:02.142Z,11.60
2022-10-25T23:01:31.563Z,11.60
2022-10-25T23:03:59.262Z,11.70
2022-10-25T23:06:31.218Z,11.70
2022-10-25T23:09:00.677Z,11.70
2022-10-25T23:11:29.597Z,11.70
2022-10-25T23:14:00.661Z,11.70
2022-10-25T23:16:28.905Z,11.80
2022-10-25T23:18:56.014Z,11.80
2022-10-25T23:21:24.826Z,11.90
2022-10-25T23:23:52.718Z,11.90
2022-10-25T23:26:24.957Z,11.90
2022-10-25T23:28:51.763Z,11.80
2022-10-25T23:31:18.789Z,11.80
2022-10-25T23:33:45.388Z,11.90
2022-10-25T23:36:15.416Z,11.80
2022-10-25T23:38:43.126Z,11.70
2022-10-25T23:41:09.787Z,11.80
2022-10-25T23:43:36.372Z,11.80
2022-10-25T23:46:03.130Z,11.70
2022-10-25T23:48:31.155Z,11.70
2022-10-25T23:53:31.854Z,11.90
2022-10-25T23:55:59.262Z,11.90
2022-10-25T23:58:26.060Z,11.90
